Time;durP1;ratioP1;P1;durP2;ratioP2;P2;SDS_P1;SDS_P2;PMS_P1;PMS_P2;Temp;Humidity;BMP_temperature;BMP_pressure;BME280_temperature;BME280_humidity;BME280_pressure;Samples;Min_cycle;Max_cycle;Signal;HPM_P1;HPM_P2
2020/12/23 00:02:23;;;;;;;0.57;0.40;;;15.30;99.90;;;;;;5034259;28;20206;-62
2020/12/23 00:04:50;;;;;;;0.77;0.60;;;15.30;99.90;;;;;;5034011;28;20203;-61
2020/12/23 00:07:16;;;;;;;1.97;0.50;;;15.40;99.90;;;;;;5034275;28;20312;-62
2020/12/23 00:09:42;;;;;;;2.40;0.80;;;15.40;99.90;;;;;;5033502;28;20787;-62
2020/12/23 00:12:10;;;;;;;1.30;0.70;;;15.60;99.90;;;;;;5033946;28;20221;-61
2020/12/23 00:14:36;;;;;;;0.60;0.57;;;15.60;99.90;;;;;;5033427;28;20293;-61
2020/12/23 00:17:02;;;;;;;1.47;0.90;;;15.60;99.90;;;;;;5033582;28;20706;-64
2020/12/23 00:19:28;;;;;;;1.30;0.73;;;15.70;99.90;;;;;;5033352;28;20721;-63
2020/12/23 00:21:54;;;;;;;1.10;0.70;;;15.80;99.90;;;;;;5033440;28;20576;-61
2020/12/23 00:24:20;;;;;;;0.97;0.60;;;15.80;99.90;;;;;;5033195;28;20210;-61
2020/12/23 00:26:47;;;;;;;2.40;0.70;;;15.80;99.90;;;;;;5033575;28;20206;-61
2020/12/23 00:29:14;;;;;;;0.50;0.50;;;15.80;99.90;;;;;;5033236;28;20226;-61
2020/12/23 00:31:40;;;;;;;2.13;1.00;;;15.80;99.90;;;;;;5033367;28;20210;-61
2020/12/23 00:34:06;;;;;;;2.50;1.40;;;15.70;99.90;;;;;;5033464;28;20209;-61
2020/12/23 00:36:33;;;;;;;0.67;0.67;;;15.70;99.90;;;;;;5033651;28;20233;-61
2020/12/23 00:39:00;;;;;;;0.70;0.63;;;15.70;99.90;;;;;;5033520;28;20226;-61
2020/12/23 00:41:26;;;;;;;1.33;0.70;;;15.80;99.90;;;;;;5033335;28;20233;-61
2020/12/23 00:43:52;;;;;;;0.80;0.70;;;15.70;99.90;;;;;;5032981;28;20689;-62
2020/12/23 00:46:19;;;;;;;0.93;0.53;;;15.60;99.90;;;;;;5033097;28;20206;-61
2020/12/23 00:48:45;;;;;;;0.70;0.57;;;15.60;99.90;;;;;;5032914;28;20593;-61
2020/12/23 00:51:13;;;;;;;1.70;0.87;;;15.70;99.90;;;;;;5033175;28;20210;-61
2020/12/23 00:53:39;;;;;;;0.87;0.53;;;15.80;99.90;;;;;;5032879;28;20206;-61
2020/12/23 00:56:06;;;;;;;1.00;0.60;;;15.80;99.90;;;;;;5032870;28;20531;-61
2020/12/23 00:58:32;;;;;;;1.03;0.60;;;15.80;99.90;;;;;;5032900;28;20201;-58
2020/12/23 01:00:59;;;;;;;2.50;0.43;;;15.60;99.90;;;;;;5033249;28;20254;-59
2020/12/23 01:03:26;;;;;;;1.10;0.70;;;15.70;99.90;;;;;;5032431;28;20248;-59
2020/12/23 01:05:53;;;;;;;1.43;0.60;;;15.60;99.90;;;;;;5032312;28;20202;-58
2020/12/23 01:08:19;;;;;;;0.80;0.77;;;15.70;99.90;;;;;;5033217;28;20218;-58
2020/12/23 01:10:46;;;;;;;0.87;0.63;;;15.80;99.90;;;;;;5032728;28;20588;-58
2020/12/23 01:13:12;;;;;;;1.60;0.47;;;15.80;99.90;;;;;;5032679;28;20292;-58
2020/12/23 01:15:39;;;;;;;3.43;2.13;;;15.80;99.90;;;;;;5032602;28;20222;-58
2020/12/23 01:18:05;;;;;;;1.20;0.80;;;15.80;99.90;;;;;;5032598;28;20206;-58
2020/12/23 01:20:32;;;;;;;0.97;0.50;;;15.90;99.90;;;;;;5032727;28;20222;-58
2020/12/23 01:22:58;;;;;;;0.70;0.60;;;15.90;99.90;;;;;;5032547;28;20206;-58
2020/12/23 01:25:25;;;;;;;2.87;1.00;;;16.00;99.90;;;;;;5032047;28;20210;-58
2020/12/23 01:27:51;;;;;;;1.00;0.90;;;15.90;99.90;;;;;;5031991;28;20213;-58
2020/12/23 01:30:17;;;;;;;1.20;1.00;;;15.80;99.90;;;;;;5032092;28;20234;-58
2020/12/23 01:32:43;;;;;;;1.53;0.70;;;15.80;99.90;;;;;;5032332;28;20216;-58
2020/12/23 01:35:10;;;;;;;0.60;0.50;;;15.90;99.90;;;;;;5031961;28;20218;-58
2020/12/23 01:37:37;;;;;;;0.90;0.50;;;15.90;99.90;;;;;;5035326;28;20297;-58
2020/12/23 01:40:04;;;;;;;0.60;0.40;;;15.90;99.90;;;;;;5032711;28;20230;-58
2020/12/23 01:42:32;;;;;;;0.50;0.50;;;16.00;99.90;;;;;;5032473;28;20218;-59
2020/12/23 01:44:59;;;;;;;0.50;0.50;;;16.00;99.90;;;;;;5032169;28;20206;-58
2020/12/23 01:47:28;;;;;;;1.00;0.90;;;16.00;99.90;;;;;;5032485;28;20264;-59
2020/12/23 01:49:54;;;;;;;1.13;0.70;;;16.00;99.90;;;;;;5031827;28;20598;-59
2020/12/23 01:52:21;;;;;;;0.73;0.73;;;16.00;99.90;;;;;;5031892;28;20217;-59
2020/12/23 01:54:49;;;;;;;1.10;0.77;;;16.00;99.90;;;;;;5031605;28;20213;-59
2020/12/23 01:57:15;;;;;;;1.30;1.20;;;16.00;99.90;;;;;;5031958;28;20226;-59
2020/12/23 01:59:44;;;;;;;0.80;0.80;;;16.00;99.90;;;;;;5031554;28;20230;-60
2020/12/23 02:02:26;;;;;;;1.10;1.00;;;16.00;99.90;;;;;;5032014;28;20213;-59
2020/12/23 02:04:52;;;;;;;1.23;1.00;;;15.90;99.90;;;;;;5031188;28;20609;-59
2020/12/23 02:07:19;;;;;;;0.83;0.50;;;15.80;99.90;;;;;;5031746;28;20202;-58
2020/12/23 02:09:48;;;;;;;2.07;1.10;;;15.80;99.90;;;;;;5031321;28;20249;-60
2020/12/23 02:12:15;;;;;;;2.33;0.60;;;15.90;99.90;;;;;;5032029;28;20294;-60
2020/12/23 02:14:41;;;;;;;1.23;0.77;;;16.00;99.90;;;;;;5032014;28;20218;-59
2020/12/23 02:17:07;;;;;;;1.77;0.90;;;16.00;99.90;;;;;;5031513;28;20434;-58
2020/12/23 02:19:34;;;;;;;1.23;0.87;;;16.00;99.90;;;;;;5031183;28;20646;-58
2020/12/23 02:22:00;;;;;;;0.80;0.67;;;16.10;99.90;;;;;;5031667;28;20213;-60
2020/12/23 02:24:28;;;;;;;0.60;0.50;;;16.10;99.90;;;;;;5031720;28;20213;-59
2020/12/23 02:26:55;;;;;;;1.30;1.07;;;16.00;99.90;;;;;;5031782;28;20199;-60
2020/12/23 02:29:21;;;;;;;0.70;0.70;;;16.10;99.90;;;;;;5031167;28;20643;-60
2020/12/23 02:31:47;;;;;;;0.73;0.73;;;16.00;99.90;;;;;;5031674;28;20202;-59
2020/12/23 02:34:14;;;;;;;0.80;0.63;;;16.10;99.90;;;;;;5031658;28;20206;-58
2020/12/23 02:36:43;;;;;;;0.50;0.50;;;16.10;99.90;;;;;;5031334;28;20710;-59
2020/12/23 02:39:09;;;;;;;0.63;0.50;;;16.10;99.90;;;;;;5031155;28;20316;-58
2020/12/23 02:41:36;;;;;;;1.07;0.50;;;16.10;99.90;;;;;;5031285;28;20206;-59
2020/12/23 02:44:03;;;;;;;0.50;0.40;;;16.10;99.90;;;;;;5030615;28;20264;-59
2020/12/23 02:46:29;;;;;;;0.40;0.40;;;16.10;99.90;;;;;;5030953;28;20700;-60
2020/12/23 02:48:55;;;;;;;2.20;0.50;;;16.10;99.90;;;;;;5030462;28;20210;-60
2020/12/23 02:51:21;;;;;;;1.03;0.50;;;16.20;99.90;;;;;;5031087;28;20209;-59
2020/12/23 02:53:47;;;;;;;0.83;0.47;;;16.20;99.90;;;;;;5030858;28;20202;-59
2020/12/23 02:56:13;;;;;;;0.90;0.60;;;16.10;99.90;;;;;;5030673;28;20233;-59
2020/12/23 02:58:41;;;;;;;0.50;0.50;;;16.20;99.90;;;;;;5030522;28;20585;-60
2020/12/23 03:01:08;;;;;;;0.83;0.50;;;16.30;99.90;;;;;;5030435;28;20674;-59
2020/12/23 03:03:34;;;;;;;0.60;0.43;;;16.30;99.90;;;;;;5030309;28;20214;-59
2020/12/23 03:06:00;;;;;;;0.57;0.50;;;16.30;99.90;;;;;;5030957;28;20202;-59
2020/12/23 03:08:26;;;;;;;1.77;0.60;;;16.30;99.90;;;;;;5030804;28;20214;-59
2020/12/23 03:10:52;;;;;;;0.77;0.40;;;16.40;99.90;;;;;;5060216;22;20279;-63
2020/12/23 03:13:18;;;;;;;1.03;0.50;;;16.40;99.90;;;;;;5050415;28;20218;-63
2020/12/23 03:15:45;;;;;;;0.77;0.47;;;16.50;99.90;;;;;;5050062;28;20224;-63
2020/12/23 03:18:12;;;;;;;0.83;0.40;;;16.60;99.90;;;;;;5050211;28;20202;-63
2020/12/23 03:20:38;;;;;;;0.80;0.60;;;16.60;99.90;;;;;;5050733;28;20308;-63
2020/12/23 03:23:04;;;;;;;2.73;0.53;;;16.50;99.90;;;;;;5050476;28;20673;-63
2020/12/23 03:25:30;;;;;;;0.23;0.23;;;16.60;99.90;;;;;;5050268;28;20209;-63
2020/12/23 03:27:56;;;;;;;0.50;0.50;;;16.60;99.90;;;;;;5049697;28;20271;-62
2020/12/23 03:30:22;;;;;;;1.47;0.43;;;16.60;99.90;;;;;;5050434;28;20233;-62
2020/12/23 03:32:49;;;;;;;0.57;0.33;;;16.50;99.90;;;;;;5050343;28;20205;-63
2020/12/23 03:35:16;;;;;;;1.23;0.60;;;16.60;99.90;;;;;;5050197;28;20202;-63
2020/12/23 03:37:42;;;;;;;1.90;1.00;;;16.70;99.90;;;;;;5050132;28;20704;-63
2020/12/23 03:40:08;;;;;;;1.67;1.10;;;16.70;99.90;;;;;;5050452;28;20225;-63
2020/12/23 03:42:34;;;;;;;2.23;1.10;;;16.70;99.90;;;;;;5050556;28;20275;-64
2020/12/23 03:45:00;;;;;;;1.43;1.23;;;16.60;99.90;;;;;;5050056;28;20216;-64
2020/12/23 03:47:26;;;;;;;1.43;1.00;;;16.70;99.90;;;;;;5049925;28;21192;-63
2020/12/23 03:49:53;;;;;;;0.77;0.73;;;16.60;99.90;;;;;;5050034;28;20644;-63
2020/12/23 03:52:20;;;;;;;1.13;0.87;;;16.60;99.90;;;;;;5050442;28;20205;-63
2020/12/23 03:54:46;;;;;;;0.87;0.80;;;16.60;99.90;;;;;;5050055;28;20496;-62
2020/12/23 03:57:13;;;;;;;1.80;0.80;;;16.60;99.90;;;;;;5050192;28;20271;-62
2020/12/23 03:59:39;;;;;;;0.73;0.67;;;16.50;99.90;;;;;;5049604;28;20725;-63
2020/12/23 04:02:05;;;;;;;0.97;0.70;;;16.60;99.90;;;;;;5050349;28;20205;-63
2020/12/23 04:04:31;;;;;;;1.00;0.57;;;16.60;99.90;;;;;;5049841;28;20695;-63
2020/12/23 04:06:58;;;;;;;1.33;0.60;;;16.50;99.90;;;;;;5050251;28;20209;-63
2020/12/23 04:09:25;;;;;;;0.67;0.50;;;16.60;99.90;;;;;;5049758;28;20242;-62
2020/12/23 04:11:51;;;;;;;0.60;0.50;;;16.60;99.90;;;;;;5050016;28;20555;-62
2020/12/23 04:14:17;;;;;;;0.37;0.30;;;16.60;99.90;;;;;;5049568;28;20209;-63
2020/12/23 04:16:43;;;;;;;0.40;0.30;;;16.60;99.90;;;;;;5049807;28;20226;-63
2020/12/23 04:19:09;;;;;;;0.97;0.40;;;16.70;99.90;;;;;;5049697;28;20263;-63
2020/12/23 04:21:35;;;;;;;1.57;0.50;;;16.50;99.90;;;;;;5049714;28;20212;-63
2020/12/23 04:24:02;;;;;;;0.40;0.37;;;16.50;99.90;;;;;;5049602;28;20202;-63
2020/12/23 04:26:29;;;;;;;0.40;0.40;;;16.50;99.90;;;;;;5049936;28;20205;-62
2020/12/23 04:28:55;;;;;;;4.50;2.40;;;16.70;99.90;;;;;;5049536;28;20217;-63
2020/12/23 04:31:21;;;;;;;2.93;1.40;;;16.70;99.90;;;;;;5050144;28;20213;-63
2020/12/23 04:33:47;;;;;;;0.70;0.50;;;16.80;99.90;;;;;;5049581;28;20217;-63
2020/12/23 04:36:13;;;;;;;1.07;0.67;;;16.90;99.90;;;;;;5049912;28;20229;-63
2020/12/23 04:38:39;;;;;;;0.73;0.50;;;16.90;99.90;;;;;;5049618;28;20209;-63
2020/12/23 04:41:07;;;;;;;0.30;0.30;;;16.90;99.90;;;;;;5052966;28;20225;-62
2020/12/23 04:43:34;;;;;;;1.23;0.80;;;16.90;99.90;;;;;;5052944;28;20209;-63
2020/12/23 04:46:02;;;;;;;1.93;0.43;;;16.80;99.90;;;;;;5053402;28;20206;-63
2020/12/23 04:48:32;;;;;;;0.60;0.60;;;16.80;99.90;;;;;;5053091;28;20217;-63
2020/12/23 04:51:02;;;;;;;1.03;0.50;;;16.70;99.90;;;;;;5053291;28;20221;-63
2020/12/23 04:53:29;;;;;;;1.57;0.50;;;16.70;99.90;;;;;;5052954;28;20573;-62
2020/12/23 04:55:56;;;;;;;0.77;0.37;;;16.70;99.90;;;;;;5053181;28;20568;-63
2020/12/23 04:58:24;;;;;;;0.70;0.60;;;16.60;99.90;;;;;;5052587;28;20202;-64
2020/12/23 05:00:50;;;;;;;1.90;0.40;;;16.60;99.90;;;;;;5053147;28;20221;-63
2020/12/23 05:03:16;;;;;;;1.17;0.50;;;16.60;99.90;;;;;;5053173;28;20221;-63
2020/12/23 05:05:44;;;;;;;1.27;0.60;;;16.60;99.90;;;;;;5052861;28;20206;-63
2020/12/23 05:08:10;;;;;;;0.47;0.47;;;16.50;99.90;;;;;;5052550;28;20597;-63
2020/12/23 05:10:37;;;;;;;1.43;0.47;;;16.40;99.90;;;;;;5052893;28;20237;-64
2020/12/23 05:13:04;;;;;;;0.40;0.40;;;16.40;99.90;;;;;;5052859;28;20210;-62
2020/12/23 05:15:31;;;;;;;0.50;0.50;;;16.40;99.90;;;;;;5052505;28;20201;-64
2020/12/23 05:18:01;;;;;;;1.00;0.60;;;16.40;99.90;;;;;;5052572;28;20209;-62
2020/12/23 05:20:28;;;;;;;0.80;0.53;;;16.40;99.90;;;;;;5052763;28;20225;-64
2020/12/23 05:22:57;;;;;;;1.03;0.67;;;16.40;99.90;;;;;;5052628;28;20279;-63
2020/12/23 05:25:23;;;;;;;1.47;0.60;;;16.30;99.90;;;;;;5052408;28;20575;-64
2020/12/23 05:27:50;;;;;;;1.23;0.90;;;16.30;99.90;;;;;;5052477;28;20573;-63
2020/12/23 05:30:19;;;;;;;0.50;0.50;;;16.30;99.90;;;;;;5052477;28;20233;-63
2020/12/23 05:32:47;;;;;;;0.40;0.40;;;16.30;99.90;;;;;;5052721;28;20208;-63
2020/12/23 05:35:15;;;;;;;0.53;0.30;;;16.30;99.90;;;;;;5052127;28;20234;-63
2020/12/23 05:37:42;;;;;;;1.20;0.40;;;16.20;99.90;;;;;;5051946;28;20230;-63
2020/12/23 05:40:08;;;;;;;2.77;0.60;;;16.30;99.90;;;;;;5052181;28;20316;-64
2020/12/23 05:42:38;;;;;;;1.07;0.70;;;16.20;99.90;;;;;;5052285;28;20576;-63
2020/12/23 05:45:07;;;;;;;2.97;1.07;;;16.10;99.90;;;;;;5052065;28;20290;-63
2020/12/23 05:47:34;;;;;;;0.47;0.40;;;16.10;99.90;;;;;;5052014;28;20661;-63
2020/12/23 05:50:01;;;;;;;0.83;0.70;;;16.10;99.90;;;;;;5051298;28;20229;-63
2020/12/23 05:52:28;;;;;;;0.33;0.33;;;16.10;99.90;;;;;;5052068;28;20209;-63
2020/12/23 05:54:54;;;;;;;0.90;0.50;;;16.10;99.90;;;;;;5051825;28;20201;-63
2020/12/23 05:57:20;;;;;;;1.73;0.80;;;16.20;99.90;;;;;;5051924;28;20229;-62
2020/12/23 05:59:47;;;;;;;1.50;1.17;;;16.10;99.90;;;;;;5051705;28;20709;-62
2020/12/23 06:02:13;;;;;;;2.60;0.70;;;16.10;99.90;;;;;;5051973;28;20210;-62
2020/12/23 06:04:43;;;;;;;1.13;0.60;;;16.10;99.90;;;;;;5051492;28;20209;-61
2020/12/23 06:07:10;;;;;;;1.03;0.83;;;16.20;99.90;;;;;;5052227;28;20201;-63
2020/12/23 06:09:38;;;;;;;1.17;0.90;;;16.20;99.90;;;;;;5051809;28;20234;-63
2020/12/23 06:12:16;;;;;;;1.90;1.30;;;16.20;99.90;;;;;;5052382;28;20217;-62
2020/12/23 06:14:52;;;;;;;1.13;0.70;;;16.10;99.90;;;;;;5051697;28;20299;-62
2020/12/23 06:17:19;;;;;;;0.90;0.73;;;16.00;99.90;;;;;;5051876;28;20319;-63
2020/12/23 06:19:48;;;;;;;3.47;2.97;;;16.10;99.90;;;;;;5051577;28;20232;-64
2020/12/23 06:22:16;;;;;;;11.20;8.20;;;16.00;99.90;;;;;;5051661;28;20206;-63
2020/12/23 06:24:42;;;;;;;2.53;1.60;;;16.10;99.90;;;;;;5051235;28;20364;-64
2020/12/23 06:27:10;;;;;;;0.77;0.77;;;16.00;99.90;;;;;;5051476;28;20258;-62
2020/12/23 06:29:38;;;;;;;0.90;0.80;;;16.00;99.90;;;;;;5051071;28;20272;-64
2020/12/23 06:32:06;;;;;;;1.63;0.90;;;16.00;99.90;;;;;;5051647;28;20216;-63
2020/12/23 06:34:33;;;;;;;2.03;1.50;;;16.00;99.90;;;;;;5051127;28;20669;-63
2020/12/23 06:37:00;;;;;;;1.90;1.50;;;16.10;99.90;;;;;;5051173;28;20724;-64
2020/12/23 06:39:30;;;;;;;1.37;1.23;;;15.90;99.90;;;;;;5050869;28;20221;-64
2020/12/23 06:42:34;;;;;;;2.43;1.70;;;15.90;99.90;;;;;;5051069;28;20209;-64
2020/12/23 06:45:12;;;;;;;1.77;1.60;;;15.90;99.90;;;;;;5051043;28;20209;-64
2020/12/23 06:47:39;;;;;;;2.30;2.00;;;15.80;99.90;;;;;;5050771;28;20756;-63
2020/12/23 06:50:29;;;;;;;1.30;1.20;;;15.80;99.90;;;;;;5050782;28;20222;-62
2020/12/23 06:52:56;;;;;;;2.07;1.13;;;15.80;99.90;;;;;;5050836;28;20264;-63
2020/12/23 06:55:46;;;;;;;3.77;2.50;;;15.80;99.90;;;;;;5051228;28;20213;-62
2020/12/23 06:58:45;;;;;;;2.10;1.63;;;15.90;99.90;;;;;;5050903;28;20205;-63
2020/12/23 07:01:19;;;;;;;2.07;1.50;;;15.90;99.90;;;;;;5050638;28;20751;-63
2020/12/23 07:03:47;;;;;;;2.83;1.20;;;15.80;99.90;;;;;;5050107;28;20263;-63
2020/12/23 07:06:30;;;;;;;3.97;2.17;;;15.90;99.90;;;;;;5050855;28;20197;-63
2020/12/23 07:08:59;;;;;;;2.87;1.90;;;15.80;99.90;;;;;;5050284;28;20209;-62
2020/12/23 07:11:32;;;;;;;1.57;1.00;;;15.80;99.90;;;;;;5050739;28;20669;-63
2020/12/23 07:13:58;;;;;;;3.60;0.90;;;15.80;99.90;;;;;;5050712;28;20205;-66
2020/12/23 07:16:26;;;;;;;0.70;0.60;;;15.80;99.90;;;;;;5050826;28;20228;-63
2020/12/23 07:18:56;;;;;;;1.07;0.90;;;15.80;99.90;;;;;;5050323;28;20213;-63
2020/12/23 07:21:25;;;;;;;4.50;1.20;;;15.80;99.90;;;;;;5050586;28;20201;-63
2020/12/23 07:23:54;;;;;;;4.03;1.47;;;15.90;99.90;;;;;;5050179;28;20732;-62
2020/12/23 07:26:24;;;;;;;1.23;1.00;;;15.90;99.90;;;;;;5050718;28;20301;-63
2020/12/23 07:28:50;;;;;;;1.03;0.90;;;15.90;99.90;;;;;;5050305;28;20251;-64
2020/12/23 07:31:16;;;;;;;1.17;0.77;;;15.90;99.90;;;;;;5050417;28;20233;-63
2020/12/23 07:33:44;;;;;;;3.83;1.97;;;15.90;99.90;;;;;;5050309;28;20205;-64
2020/12/23 07:36:10;;;;;;;4.40;2.50;;;15.80;99.90;;;;;;5050305;28;20234;-63
2020/12/23 07:38:39;;;;;;;2.33;1.90;;;15.90;99.90;;;;;;5049990;28;20209;-63
2020/12/23 07:41:05;;;;;;;3.57;1.67;;;15.80;99.90;;;;;;5050140;28;20233;-63
2020/12/23 07:43:32;;;;;;;2.83;1.23;;;15.80;99.90;;;;;;5050055;28;20206;-62
2020/12/23 07:45:58;;;;;;;1.33;0.83;;;15.80;99.90;;;;;;5050707;28;20213;-63
2020/12/23 07:48:28;;;;;;;2.20;0.80;;;15.80;99.90;;;;;;5050286;28;20572;-63
2020/12/23 07:50:57;;;;;;;1.30;0.70;;;15.80;99.90;;;;;;5050205;28;20705;-63
2020/12/23 07:53:24;;;;;;;1.83;1.20;;;15.90;99.90;;;;;;5050572;28;20205;-63
2020/12/23 07:55:56;;;;;;;1.93;0.67;;;15.90;99.90;;;;;;5050612;28;20209;-64
2020/12/23 07:58:22;;;;;;;0.83;0.73;;;15.90;99.90;;;;;;5050814;28;20318;-62
2020/12/23 08:00:49;;;;;;;4.90;3.30;;;16.00;99.90;;;;;;5050405;28;20275;-63
2020/12/23 08:03:15;;;;;;;1.37;1.13;;;16.00;99.90;;;;;;5050624;28;20210;-63
2020/12/23 08:05:41;;;;;;;3.50;1.90;;;16.10;99.90;;;;;;5050103;28;20284;-63
2020/12/23 08:08:08;;;;;;;1.60;0.70;;;16.20;99.90;;;;;;5050434;28;20206;-63
2020/12/23 08:10:35;;;;;;;1.77;0.80;;;16.20;99.90;;;;;;5050086;28;20236;-64
2020/12/23 08:13:03;;;;;;;1.63;0.70;;;16.30;99.90;;;;;;5050028;28;20209;-64
2020/12/23 08:15:30;;;;;;;2.10;0.60;;;16.20;99.90;;;;;;5053633;28;20221;-64
2020/12/23 08:18:00;;;;;;;1.03;0.67;;;16.30;99.90;;;;;;5053886;28;20283;-63
2020/12/23 08:20:26;;;;;;;0.63;0.50;;;16.40;99.90;;;;;;5054565;28;20237;-64
2020/12/23 08:22:52;;;;;;;2.83;0.60;;;16.40;99.90;;;;;;5054575;28;20496;-62
2020/12/23 08:25:21;;;;;;;1.10;0.77;;;16.40;99.90;;;;;;5055637;28;20205;-68
2020/12/23 08:27:49;;;;;;;0.70;0.50;;;16.40;99.90;;;;;;5054490;28;20305;-63
2020/12/23 08:30:18;;;;;;;0.83;0.70;;;16.50;99.90;;;;;;5054246;28;20229;-63
2020/12/23 08:32:47;;;;;;;0.53;0.40;;;16.40;99.90;;;;;;5053927;28;20213;-63
2020/12/23 08:35:14;;;;;;;0.67;0.50;;;16.50;99.90;;;;;;5053761;28;20567;-63
2020/12/23 08:37:40;;;;;;;1.20;0.40;;;16.50;99.90;;;;;;5053667;28;20291;-64
2020/12/23 08:40:08;;;;;;;1.53;0.80;;;16.40;99.90;;;;;;5053473;28;20230;-64
2020/12/23 08:42:35;;;;;;;0.57;0.50;;;16.40;99.90;;;;;;5053607;28;20584;-64
2020/12/23 08:45:02;;;;;;;1.00;0.50;;;16.50;99.90;;;;;;5053151;28;20210;-64
2020/12/23 08:47:32;;;;;;;1.23;0.70;;;16.50;99.90;;;;;;5053319;28;20719;-64
2020/12/23 08:49:59;;;;;;;0.70;0.60;;;16.60;99.90;;;;;;5048456;28;20451;-65
2020/12/23 08:52:26;;;;;;;1.53;0.90;;;16.50;99.90;;;;;;5053264;28;20210;-64
2020/12/23 08:54:53;;;;;;;4.63;0.77;;;16.60;99.90;;;;;;5052859;28;20205;-65
2020/12/23 08:57:25;;;;;;;1.07;0.80;;;16.60;99.90;;;;;;5052990;28;20609;-65
2020/12/23 08:59:52;;;;;;;0.60;0.60;;;16.70;99.90;;;;;;5052431;28;20236;-64
2020/12/23 09:02:19;;;;;;;1.00;0.90;;;16.70;99.90;;;;;;5053096;28;20212;-64
2020/12/23 09:04:46;;;;;;;1.17;0.80;;;16.80;99.90;;;;;;5052762;28;20209;-63
2020/12/23 09:07:13;;;;;;;0.93;0.50;;;16.80;99.90;;;;;;5053030;28;20202;-63
2020/12/23 09:09:39;;;;;;;0.60;0.60;;;16.90;99.90;;;;;;5076450;23;22163;-63
2020/12/23 09:12:06;;;;;;;1.10;0.80;;;17.00;99.90;;;;;;5077778;28;20215;-64
2020/12/23 09:14:34;;;;;;;1.93;0.80;;;17.10;99.90;;;;;;5096982;28;20208;-63
2020/12/23 09:17:04;;;;;;;0.80;0.60;;;17.10;99.90;;;;;;5100207;28;20258;-65
2020/12/23 09:19:48;;;;;;;0.40;0.37;;;17.10;99.90;;;;;;5092210;28;20208;-62
2020/12/23 09:22:27;;;;;;;0.70;0.50;;;17.10;99.90;;;;;;5077806;28;20631;-62
2020/12/23 09:25:11;;;;;;;0.40;0.37;;;17.10;99.90;;;;;;5072887;28;20227;-64
2020/12/23 09:27:38;;;;;;;0.93;0.70;;;17.20;99.90;;;;;;5075674;28;20657;-64
2020/12/23 09:30:05;;;;;;;1.17;0.60;;;17.10;99.90;;;;;;5053247;28;20225;-60
2020/12/23 09:32:32;;;;;;;1.27;1.17;;;17.10;99.90;;;;;;5054447;28;20217;-64
2020/12/23 09:35:13;;;;;;;1.07;0.50;;;17.10;99.90;;;;;;5054524;28;20206;-63
2020/12/23 09:37:39;;;;;;;0.80;0.60;;;17.20;99.90;;;;;;5053491;28;20251;-63
2020/12/23 09:40:06;;;;;;;1.63;1.20;;;17.10;99.90;;;;;;5053398;28;20639;-62
2020/12/23 09:42:33;;;;;;;1.27;1.00;;;17.20;99.90;;;;;;5053176;28;20235;-61
2020/12/23 09:44:59;;;;;;;2.83;1.30;;;17.20;99.90;;;;;;5052876;28;20705;-62
2020/12/23 09:47:25;;;;;;;2.50;1.63;;;17.30;99.90;;;;;;5053080;28;20201;-63
2020/12/23 09:49:52;;;;;;;0.97;0.70;;;17.30;99.90;;;;;;5052274;28;20713;-63
2020/12/23 09:52:19;;;;;;;0.80;0.70;;;17.30;99.90;;;;;;5052003;28;20217;-62
2020/12/23 09:54:45;;;;;;;1.67;0.80;;;17.30;99.90;;;;;;5052684;28;20201;-63
2020/12/23 09:57:11;;;;;;;2.10;1.00;;;17.40;99.90;;;;;;5052490;28;20603;-64
2020/12/23 09:59:37;;;;;;;1.90;0.90;;;17.40;99.90;;;;;;5052036;28;20225;-64
2020/12/23 10:02:03;;;;;;;1.40;0.90;;;17.40;99.90;;;;;;5051754;28;20213;-64
2020/12/23 10:04:30;;;;;;;2.50;0.90;;;17.60;99.90;;;;;;5052423;28;20627;-62
2020/12/23 10:06:57;;;;;;;1.00;0.90;;;17.70;99.90;;;;;;5052380;28;20205;-63
2020/12/23 10:09:23;;;;;;;2.43;0.80;;;17.80;99.90;;;;;;5051285;28;20566;-64
2020/12/23 10:11:49;;;;;;;2.30;0.80;;;17.80;99.90;;;;;;5052406;28;20209;-67
2020/12/23 10:14:16;;;;;;;2.40;0.93;;;17.80;99.90;;;;;;5051275;28;20271;-64
2020/12/23 10:16:42;;;;;;;4.00;0.87;;;17.80;99.90;;;;;;5051729;28;20229;-64
2020/12/23 10:19:08;;;;;;;1.07;0.90;;;17.80;99.90;;;;;;5051720;28;20213;-63
2020/12/23 10:21:34;;;;;;;2.30;0.83;;;17.70;99.90;;;;;;5051848;28;20823;-63
2020/12/23 10:24:01;;;;;;;1.43;1.10;;;17.60;99.90;;;;;;5051822;28;20212;-65
2020/12/23 10:26:27;;;;;;;0.90;0.70;;;17.50;99.90;;;;;;5051529;28;20201;-60
2020/12/23 10:28:54;;;;;;;1.30;0.90;;;17.30;99.90;;;;;;5054042;28;20224;-60
2020/12/23 10:31:20;;;;;;;2.60;1.10;;;17.20;99.90;;;;;;5054784;28;20232;-60
2020/12/23 10:33:46;;;;;;;1.50;1.20;;;17.10;99.90;;;;;;5052768;28;20205;-61
2020/12/23 10:36:14;;;;;;;1.10;0.73;;;17.10;99.90;;;;;;5051661;28;20293;-62
2020/12/23 10:38:41;;;;;;;1.52;1.20;;;17.00;99.90;;;;;;5062769;28;20487;-63
2020/12/23 10:41:09;;;;;;;1.50;1.10;;;17.10;99.90;;;;;;5071132;28;20729;-63
2020/12/23 10:43:35;;;;;;;3.77;1.00;;;17.10;99.90;;;;;;5071866;28;20205;-63
2020/12/23 10:46:01;;;;;;;1.00;0.70;;;17.10;99.90;;;;;;5064697;28;20225;-62
2020/12/23 10:48:27;;;;;;;1.67;0.90;;;17.10;99.90;;;;;;5042448;28;20202;-61
2020/12/23 10:50:54;;;;;;;2.37;0.80;;;17.00;99.90;;;;;;5032434;28;20237;-61
2020/12/23 10:53:20;;;;;;;1.23;1.00;;;17.00;99.90;;;;;;5036981;28;20206;-63
2020/12/23 10:55:46;;;;;;;1.37;1.00;;;17.10;99.90;;;;;;5031584;28;20202;-61
2020/12/23 10:58:13;;;;;;;2.37;0.93;;;17.00;99.90;;;;;;5031022;28;20272;-64
2020/12/23 11:00:39;;;;;;;1.40;1.03;;;17.10;99.90;;;;;;5030728;28;20253;-61
2020/12/23 11:03:05;;;;;;;1.63;1.10;;;17.10;99.90;;;;;;5030741;28;20198;-60
2020/12/23 11:05:32;;;;;;;1.60;0.90;;;17.20;99.90;;;;;;5030622;28;20201;-60
2020/12/23 11:07:58;;;;;;;1.43;0.97;;;17.20;99.90;;;;;;5030676;28;20197;-60
2020/12/23 11:10:24;;;;;;;2.53;2.20;;;17.20;99.90;;;;;;5030734;28;20234;-60
2020/12/23 11:12:50;;;;;;;4.13;1.40;;;17.20;99.90;;;;;;5030590;28;20217;-62
2020/12/23 11:15:17;;;;;;;2.93;1.60;;;17.10;99.90;;;;;;5030734;28;20206;-61
2020/12/23 11:17:44;;;;;;;4.40;2.90;;;17.20;99.90;;;;;;5030578;28;20225;-61
2020/12/23 11:20:11;;;;;;;4.30;2.90;;;17.20;99.90;;;;;;5030819;28;20226;-61
2020/12/23 11:22:37;;;;;;;1.87;1.10;;;17.40;99.90;;;;;;5030867;28;20206;-61
2020/12/23 11:25:04;;;;;;;1.27;1.17;;;17.40;99.90;;;;;;5030190;28;20271;-61
2020/12/23 11:27:30;;;;;;;1.47;1.10;;;17.50;99.90;;;;;;5030607;28;20202;-61
2020/12/23 11:29:56;;;;;;;1.63;1.10;;;17.40;99.90;;;;;;5030135;28;20238;-61
2020/12/23 11:32:23;;;;;;;1.97;1.20;;;17.40;99.90;;;;;;5030770;28;20276;-61
2020/12/23 11:34:49;;;;;;;1.33;0.90;;;17.40;99.90;;;;;;5030477;28;20232;-60
2020/12/23 11:37:15;;;;;;;2.67;1.20;;;17.40;99.90;;;;;;5030516;28;20222;-60
2020/12/23 11:39:42;;;;;;;1.57;1.23;;;17.50;99.90;;;;;;5030894;28;20633;-60
2020/12/23 11:42:08;;;;;;;2.97;1.17;;;17.50;99.90;;;;;;5030575;28;20202;-60
2020/12/23 11:44:34;;;;;;;1.83;1.20;;;17.50;99.90;;;;;;5030107;28;20210;-60
2020/12/23 11:47:00;;;;;;;1.57;1.10;;;17.60;99.90;;;;;;5030612;28;20213;-61
2020/12/23 11:49:27;;;;;;;2.53;1.40;;;17.60;99.90;;;;;;5032784;28;20210;-61
2020/12/23 11:51:54;;;;;;;2.13;1.20;;;17.50;99.90;;;;;;5034325;28;20210;-61
2020/12/23 11:54:21;;;;;;;2.30;1.50;;;17.50;99.90;;;;;;5033896;28;20217;-61
2020/12/23 11:56:49;;;;;;;3.23;1.70;;;17.40;99.90;;;;;;5034234;28;20222;-59
2020/12/23 11:59:16;;;;;;;2.10;1.63;;;17.40;99.90;;;;;;5033933;28;20210;-60
2020/12/23 12:01:42;;;;;;;1.97;1.03;;;17.40;99.90;;;;;;5034267;28;20222;-61
2020/12/23 12:04:08;;;;;;;1.07;0.90;;;17.50;99.90;;;;;;5033962;28;20203;-63
2020/12/23 12:06:35;;;;;;;2.47;1.87;;;17.40;99.90;;;;;;5034094;28;20241;-61
2020/12/23 12:09:01;;;;;;;1.73;1.20;;;17.40;99.90;;;;;;5033771;28;20233;-60
2020/12/23 12:11:28;;;;;;;1.63;1.10;;;17.40;99.90;;;;;;5033863;28;20325;-63
2020/12/23 12:13:54;;;;;;;1.23;1.00;;;17.40;99.90;;;;;;5033821;28;20675;-62
2020/12/23 12:16:20;;;;;;;1.67;1.03;;;17.30;99.90;;;;;;5034650;28;20592;-62
2020/12/23 12:18:46;;;;;;;1.30;1.10;;;17.30;99.90;;;;;;5034064;28;20211;-62
2020/12/23 12:21:13;;;;;;;0.83;0.80;;;17.20;99.90;;;;;;5034001;28;20642;-62
2020/12/23 12:23:39;;;;;;;1.00;0.80;;;17.20;99.90;;;;;;5033504;28;20666;-62
2020/12/23 12:26:06;;;;;;;2.73;1.00;;;17.10;99.90;;;;;;5034075;28;20218;-62
2020/12/23 12:28:32;;;;;;;1.13;0.90;;;17.10;99.90;;;;;;5033840;28;20202;-62
2020/12/23 12:30:58;;;;;;;1.87;1.00;;;17.10;99.90;;;;;;5033786;28;20317;-61
2020/12/23 12:33:24;;;;;;;1.40;1.20;;;17.10;99.90;;;;;;5033130;28;20218;-61
2020/12/23 12:35:51;;;;;;;2.10;1.17;;;17.10;99.90;;;;;;5036990;28;20446;-63
2020/12/23 12:38:17;;;;;;;2.07;0.97;;;17.10;99.90;;;;;;5074775;28;20221;-63
2020/12/23 12:40:44;;;;;;;2.20;1.23;;;17.10;99.90;;;;;;5077222;28;20315;-62
2020/12/23 12:43:10;;;;;;;1.70;1.20;;;17.10;99.90;;;;;;5082543;28;20220;-61
2020/12/23 12:45:36;;;;;;;1.73;1.20;;;17.10;99.90;;;;;;5082318;28;20200;-62
2020/12/23 12:48:03;;;;;;;1.37;1.27;;;17.10;99.90;;;;;;5082276;28;20227;-62
2020/12/23 12:50:30;;;;;;;2.10;1.07;;;17.10;99.90;;;;;;5080936;28;20731;-62